This is the latest recevied weather packets stored in our database for station/object LZ1PDB-12. If no packets are shown the sender has not sent any weather packets the latest 1 day(s).
| Time | Temp. | Humidity | Pressure | Rain* | Wind** | Luminosity | Snow |
|---|---|---|---|---|---|---|---|
| 1778058442 | 17.78° C | 45% | 1020.6 hPa | - | - | - | - |
| 1778057541 | 18.89° C | 42% | 1020.7 hPa | - | - | - | - |
| 1778056638 | 17.78° C | 44% | 1020.7 hPa | - | - | - | - |
| 1778055737 | 17.78° C | 44% | 1020.6 hPa | - | - | - | - |
| 1778054837 | 17.22° C | 44% | 1020.7 hPa | - | - | - | - |
| 1778053579 | 16.11° C | 45% | 1020.7 hPa | - | - | - | - |
| 1778052679 | 15.56° C | 47% | 1020.8 hPa | - | - | - | - |
| 1778051779 | 15.56° C | 47% | 1020.9 hPa | - | - | - | - |
| 1778050878 | 15° C | 47% | 1020.9 hPa | - | - | - | - |
| 1778049077 | 14.44° C | 48% | 1021.2 hPa | - | - | - | - |
| 1778048177 | 14.44° C | 46% | 1021.2 hPa | - | - | - | - |
| 1778047277 | 13.89° C | 48% | 1021.4 hPa | - | - | - | - |
| 1778046376 | 14.44° C | 46% | 1021.3 hPa | - | - | - | - |
| 1778045476 | 14.44° C | 46% | 1021.2 hPa | - | - | - | - |
| 1778044575 | 14.44° C | 46% | 1021.2 hPa | - | - | - | - |
| 1778043674 | 14.44° C | 45% | 1021.1 hPa | - | - | - | - |
| 1778042774 | 14.44° C | 45% | 1021.1 hPa | - | - | - | - |
| 1778040971 | 14.44° C | 44% | 1020.9 hPa | - | - | - | - |
| 1778040071 | 14.44° C | 44% | 1020.8 hPa | - | - | - | - |
| 1778039171 | 14.44° C | 44% | 1020.8 hPa | - | - | - | - |
| 1778037368 | 14.44° C | 44% | 1020.5 hPa | - | - | - | - |
| 1778036468 | 14.44° C | 44% | 1020.4 hPa | - | - | - | - |
| 1778031962 | 15° C | 44% | 1020.4 hPa | - | - | - | - |
| 1778031062 | 15° C | 44% | 1020.3 hPa | - | - | - | - |
| 1778030162 | 15° C | 44% | 1020.2 hPa | - | - | - | - |
* Rain since midnight (hover to see other rain measurements)
** Current wind speed in m/s (hover to see current wind gust speed)